createdAt,value
2018-09-11T00:00:40.303Z,65.46
2018-09-11T00:03:09.820Z,64.77
2018-09-11T00:05:39.970Z,65.04
2018-09-11T00:08:09.676Z,65.43
2018-09-11T00:10:40.320Z,65.81
2018-09-11T00:13:09.918Z,66.08
2018-09-11T00:15:40.423Z,65.42
2018-09-11T00:18:09.867Z,65.27
2018-09-11T00:20:39.906Z,65.83
2018-09-11T00:23:09.678Z,65.92
2018-09-11T00:25:40.047Z,66.18
2018-09-11T00:28:09.810Z,65.48
2018-09-11T00:30:40.226Z,66.08
2018-09-11T00:33:09.762Z,66.01
2018-09-11T00:35:40.115Z,66.58
2018-09-11T00:38:09.649Z,66.24
2018-09-11T00:40:39.981Z,66.58
2018-09-11T00:43:09.426Z,66.50
2018-09-11T00:45:40.947Z,66.67
2018-09-11T00:48:10.652Z,66.15
2018-09-11T00:50:40.080Z,67.07
2018-09-11T00:53:09.881Z,66.95
2018-09-11T00:55:40.179Z,67.62
2018-09-11T00:58:09.941Z,67.28
2018-09-11T01:00:40.242Z,67.12
2018-09-11T01:03:09.734Z,67.78
2018-09-11T01:05:39.919Z,67.33
2018-09-11T01:08:09.678Z,66.85
2018-09-11T01:10:40.036Z,66.78
2018-09-11T01:13:09.429Z,66.90
2018-09-11T01:15:40.214Z,66.73
2018-09-11T01:18:10.222Z,67.45
2018-09-11T01:20:40.518Z,67.41
2018-09-11T01:23:10.127Z,67.40
2018-09-11T01:25:40.221Z,66.67
2018-09-11T01:28:09.799Z,66.11
2018-09-11T01:30:40.316Z,66.44
2018-09-11T01:33:09.881Z,65.44
2018-09-11T01:35:40.286Z,66.00
2018-09-11T01:38:09.901Z,65.99
2018-09-11T01:40:40.220Z,65.56
2018-09-11T01:43:09.652Z,65.13
2018-09-11T01:45:40.338Z,65.66
2018-09-11T01:48:10.602Z,64.53
2018-09-11T01:50:40.291Z,65.38
2018-09-11T01:53:09.847Z,65.05
2018-09-11T01:55:40.306Z,64.64
2018-09-11T01:58:10.110Z,63.56
2018-09-11T02:00:40.329Z,64.26
2018-09-11T02:03:09.925Z,64.83
2018-09-11T02:05:40.293Z,64.19
2018-09-11T02:08:09.960Z,64.13
2018-09-11T02:10:40.324Z,64.16
2018-09-11T02:13:10.012Z,64.29
2018-09-11T02:15:40.436Z,63.77
2018-09-11T02:18:09.936Z,64.41
2018-09-11T02:20:40.397Z,63.98
2018-09-11T02:23:09.944Z,64.03
2018-09-11T02:25:40.270Z,64.05
2018-09-11T02:28:09.727Z,64.36
2018-09-11T02:30:40.365Z,64.36
2018-09-11T02:33:10.084Z,64.09
2018-09-11T02:35:40.437Z,64.12
2018-09-11T02:38:10.153Z,63.83
2018-09-11T02:40:40.814Z,64.22
2018-09-11T02:43:10.302Z,64.23
2018-09-11T02:45:40.582Z,64.24
2018-09-11T02:48:10.055Z,64.50
2018-09-11T02:50:40.502Z,64.63
2018-09-11T02:53:10.371Z,64.65
2018-09-11T02:55:40.456Z,63.94
2018-09-11T02:58:10.282Z,63.87
2018-09-11T03:00:40.505Z,65.05
2018-09-11T03:03:11.582Z,64.60
2018-09-11T03:05:41.597Z,64.27
2018-09-11T03:08:11.572Z,64.28
2018-09-11T03:10:41.008Z,65.40
2018-09-11T03:13:10.486Z,64.23
2018-09-11T03:15:40.783Z,65.08
2018-09-11T03:18:10.691Z,65.22
2018-09-11T03:20:40.594Z,64.33
2018-09-11T03:23:10.194Z,65.00
2018-09-11T03:25:40.548Z,64.50
2018-09-11T03:28:10.299Z,65.00
2018-09-11T03:30:40.745Z,64.63
2018-09-11T03:33:10.253Z,64.64
2018-09-11T03:35:40.601Z,64.65
2018-09-11T03:38:10.352Z,65.05
2018-09-11T03:40:40.700Z,65.54
2018-09-11T03:43:10.495Z,65.01
2018-09-11T03:45:50.416Z,65.73
2018-09-11T03:48:21.465Z,65.71
2018-09-11T03:50:52.092Z,65.41
2018-09-11T03:53:21.624Z,65.76
2018-09-11T03:55:51.326Z,65.74
2018-09-11T03:58:21.126Z,65.47
2018-09-11T04:00:50.683Z,65.37
2018-09-11T04:03:20.418Z,66.00
2018-09-11T04:05:50.110Z,66.13
2018-09-11T04:08:19.620Z,65.48
2018-09-11T04:10:49.715Z,65.61
2018-09-11T04:13:19.585Z,65.95
2018-09-11T04:15:49.323Z,65.71
2018-09-11T04:18:18.854Z,66.42
2018-09-11T04:20:48.551Z,65.38
2018-09-11T04:23:18.009Z,66.45
2018-09-11T04:25:47.985Z,66.23
2018-09-11T04:28:17.594Z,66.05
2018-09-11T04:30:47.294Z,66.53
2018-09-11T04:33:16.669Z,66.54
2018-09-11T04:35:46.348Z,66.40
2018-09-11T04:38:16.022Z,65.34
2018-09-11T04:40:45.795Z,65.35
2018-09-11T04:43:15.188Z,65.59
2018-09-11T04:45:44.757Z,66.10
2018-09-11T04:48:14.192Z,65.25
2018-09-11T04:50:43.868Z,65.94
2018-09-11T04:53:13.463Z,65.92
2018-09-11T04:55:43.154Z,65.77
2018-09-11T04:58:12.650Z,65.73
2018-09-11T05:00:42.058Z,65.85
2018-09-11T05:03:11.602Z,65.01
2018-09-11T05:05:40.993Z,65.08
2018-09-11T05:08:10.526Z,66.55
2018-09-11T05:10:40.951Z,65.10
2018-09-11T05:13:10.596Z,65.80
2018-09-11T05:15:40.926Z,65.25
2018-09-11T05:18:10.475Z,65.57
2018-09-11T05:20:40.891Z,65.52
2018-09-11T05:23:10.903Z,65.46
2018-09-11T05:25:40.911Z,65.58
2018-09-11T05:28:10.356Z,65.90
2018-09-11T05:30:41.091Z,65.48
2018-09-11T05:33:10.762Z,65.34
2018-09-11T05:35:40.863Z,65.66
2018-09-11T05:38:10.508Z,65.15
2018-09-11T05:40:41.066Z,65.55
2018-09-11T05:43:10.666Z,65.84
2018-09-11T05:45:41.071Z,65.58
2018-09-11T05:48:10.665Z,64.87
2018-09-11T05:50:41.270Z,65.81
2018-09-11T05:53:10.822Z,66.43
2018-09-11T05:55:41.355Z,65.37
2018-09-11T05:58:11.028Z,65.46
2018-09-11T06:00:41.102Z,65.76
2018-09-11T06:03:10.677Z,65.78
2018-09-11T06:05:41.185Z,65.13
2018-09-11T06:08:10.870Z,65.59
2018-09-11T06:10:41.238Z,65.70
2018-09-11T06:13:10.766Z,65.50
2018-09-11T06:15:41.072Z,65.95
2018-09-11T06:18:10.601Z,65.78
2018-09-11T06:20:40.993Z,65.49
2018-09-11T06:23:10.644Z,66.16
2018-09-11T06:25:42.173Z,65.59
2018-09-11T06:28:11.838Z,65.56
2018-09-11T06:30:41.287Z,66.11
2018-09-11T06:33:11.001Z,65.80
2018-09-11T06:35:41.014Z,66.07
2018-09-11T06:38:10.688Z,65.17
2018-09-11T06:40:41.962Z,66.22
2018-09-11T06:43:11.400Z,65.18
2018-09-11T06:45:41.438Z,65.40
2018-09-11T06:48:11.157Z,65.48
2018-09-11T06:50:41.183Z,65.52
2018-09-11T06:53:10.694Z,66.70
2018-09-11T06:55:42.715Z,66.17
2018-09-11T06:58:12.100Z,65.83
2018-09-11T07:00:41.877Z,65.43
2018-09-11T07:03:11.769Z,66.06
2018-09-11T07:05:42.172Z,66.15
2018-09-11T07:08:11.727Z,65.97
2018-09-11T07:10:41.236Z,65.50
2018-09-11T07:13:11.201Z,65.11
2018-09-11T07:15:41.311Z,64.86
2018-09-11T07:18:10.979Z,64.84
2018-09-11T07:20:41.159Z,64.43
2018-09-11T07:23:10.891Z,64.44
2018-09-11T07:25:41.203Z,63.87
2018-09-11T07:28:10.928Z,62.63
2018-09-11T07:30:41.281Z,62.38
2018-09-11T07:33:10.850Z,61.94
2018-09-11T07:35:42.419Z,62.21
2018-09-11T07:38:11.922Z,62.06
2018-09-11T07:40:41.442Z,61.81
2018-09-11T07:43:11.078Z,60.98
2018-09-11T07:45:41.184Z,60.01
2018-09-11T07:48:10.801Z,60.37
2018-09-11T07:50:41.265Z,60.06
2018-09-11T07:53:10.788Z,59.27
2018-09-11T07:55:42.550Z,58.97
2018-09-11T07:58:12.366Z,58.89
2018-09-11T08:00:42.014Z,59.64
2018-09-11T08:03:11.535Z,58.07
2018-09-11T08:05:42.265Z,58.20
2018-09-11T08:08:11.856Z,58.13
2018-09-11T08:10:41.294Z,58.17
2018-09-11T08:13:11.002Z,58.13
2018-09-11T08:15:41.326Z,58.27
2018-09-11T08:18:10.966Z,58.94
2018-09-11T08:20:41.323Z,58.75
2018-09-11T08:23:10.976Z,57.96
2018-09-11T08:25:41.258Z,58.13
2018-09-11T08:28:11.770Z,58.57
2018-09-11T08:30:41.496Z,58.08
2018-09-11T08:33:11.025Z,58.28
2018-09-11T08:35:41.338Z,59.61
2018-09-11T08:38:10.976Z,59.28
2018-09-11T08:40:41.766Z,58.64
2018-09-11T08:43:11.302Z,59.06
2018-09-11T08:45:41.516Z,58.59
2018-09-11T08:48:11.022Z,57.40
2018-09-11T08:50:41.854Z,57.98
2018-09-11T08:53:11.442Z,57.47
2018-09-11T08:55:41.447Z,57.35
2018-09-11T08:58:10.922Z,57.35
2018-09-11T09:00:41.381Z,57.63
2018-09-11T09:03:11.174Z,57.72
2018-09-11T09:05:41.586Z,58.03
2018-09-11T09:08:11.097Z,57.36
2018-09-11T09:10:41.765Z,57.60
2018-09-11T09:13:11.272Z,57.49
2018-09-11T09:15:41.682Z,57.79
2018-09-11T09:18:11.239Z,57.23
2018-09-11T09:20:41.575Z,57.51
2018-09-11T09:23:11.164Z,57.70
2018-09-11T09:25:41.506Z,57.17
2018-09-11T09:28:10.937Z,56.66
2018-09-11T09:30:41.674Z,57.42
2018-09-11T09:33:11.256Z,56.11
2018-09-11T09:35:41.311Z,56.67
2018-09-11T09:38:10.755Z,56.22
2018-09-11T09:40:41.492Z,56.57
2018-09-11T09:43:10.961Z,56.53
2018-09-11T09:45:41.714Z,55.56
2018-09-11T09:48:11.198Z,55.81
2018-09-11T09:50:41.705Z,55.58
2018-09-11T09:53:11.421Z,55.47
2018-09-11T09:55:41.735Z,54.36
2018-09-11T09:58:11.405Z,54.93
2018-09-11T10:00:46.721Z,55.07
2018-09-11T10:03:16.247Z,53.91
2018-09-11T10:05:45.930Z,54.42
2018-09-11T10:08:15.529Z,53.25
2018-09-11T10:10:45.607Z,53.63
2018-09-11T10:13:15.035Z,53.51
2018-09-11T10:15:44.445Z,52.29
2018-09-11T10:18:13.858Z,51.88
2018-09-11T10:20:44.139Z,52.99
2018-09-11T10:23:13.564Z,52.33
2018-09-11T10:25:43.256Z,52.52
2018-09-11T10:28:12.664Z,52.32
2018-09-11T10:30:42.354Z,51.81
2018-09-11T10:33:11.784Z,51.13
2018-09-11T10:35:41.707Z,50.54
2018-09-11T10:38:12.397Z,50.80
2018-09-11T10:40:41.831Z,50.52
2018-09-11T10:43:11.528Z,49.79
2018-09-11T10:45:42.243Z,50.54
2018-09-11T10:48:11.696Z,49.35
2018-09-11T10:50:41.827Z,49.01
2018-09-11T10:53:11.345Z,49.82
2018-09-11T10:55:41.744Z,49.63
2018-09-11T10:58:11.448Z,48.93
2018-09-11T11:00:41.925Z,49.36
2018-09-11T11:03:11.486Z,48.83
2018-09-11T11:05:41.858Z,48.98
2018-09-11T11:08:11.375Z,47.87
2018-09-11T11:10:41.806Z,48.01
2018-09-11T11:13:11.526Z,48.41
2018-09-11T11:15:41.862Z,48.79
2018-09-11T11:18:11.492Z,47.76
2018-09-11T11:20:41.731Z,47.68
2018-09-11T11:23:50.075Z,48.91
2018-09-11T11:26:20.346Z,47.66
2018-09-11T11:28:50.217Z,47.09
2018-09-11T11:31:19.771Z,47.28
2018-09-11T11:33:49.506Z,47.46
2018-09-11T11:36:19.201Z,47.73
2018-09-11T11:38:49.243Z,47.17
2018-09-11T11:41:19.916Z,47.09
2018-09-11T11:43:50.014Z,46.29
2018-09-11T11:46:20.994Z,46.90
2018-09-11T11:48:50.931Z,46.81
2018-09-11T11:51:20.686Z,47.27
2018-09-11T11:53:50.405Z,45.94
2018-09-11T11:56:19.926Z,45.88
2018-09-11T11:58:50.208Z,45.29
2018-09-11T12:01:19.812Z,45.89
2018-09-11T12:03:49.645Z,45.82
2018-09-11T12:06:19.172Z,44.77
2018-09-11T12:08:49.118Z,45.66
2018-09-11T12:11:18.806Z,44.94
2018-09-11T12:13:48.964Z,45.56
2018-09-11T12:16:18.574Z,45.70
2018-09-11T12:18:48.446Z,45.13
2018-09-11T12:21:17.962Z,45.18
2018-09-11T12:23:47.875Z,43.85
2018-09-11T12:26:17.702Z,44.23
2018-09-11T12:28:47.691Z,44.50
2018-09-11T12:31:17.197Z,44.43
2018-09-11T12:33:46.810Z,45.13
2018-09-11T12:36:16.261Z,46.07
2018-09-11T12:38:45.918Z,45.29
2018-09-11T12:41:15.820Z,43.99
2018-09-11T12:43:45.562Z,44.62
2018-09-11T12:46:15.348Z,43.67
2018-09-11T12:48:45.360Z,43.96
2018-09-11T12:51:14.995Z,43.77
2018-09-11T12:53:44.717Z,43.85
2018-09-11T12:56:14.152Z,43.78
2018-09-11T12:58:44.050Z,43.50
2018-09-11T13:01:13.608Z,44.36
2018-09-11T13:03:43.349Z,44.10
2018-09-11T13:06:13.090Z,43.09
2018-09-11T13:08:42.837Z,43.20
2018-09-11T13:11:12.350Z,43.22
2018-09-11T13:13:42.142Z,42.41
2018-09-11T13:16:12.004Z,42.85
2018-09-11T13:18:42.223Z,43.19
2018-09-11T13:21:11.816Z,43.70
2018-09-11T13:23:42.771Z,42.97
2018-09-11T13:26:13.422Z,44.13
2018-09-11T13:28:43.455Z,44.42
2018-09-11T13:31:13.043Z,43.55
2018-09-11T13:33:42.824Z,43.01
2018-09-11T13:36:12.884Z,42.36
2018-09-11T13:38:42.784Z,41.41
2018-09-11T13:41:12.214Z,41.12
2018-09-11T13:43:42.184Z,41.87
2018-09-11T13:46:11.940Z,41.38
2018-09-11T13:48:43.219Z,41.74
2018-09-11T13:51:12.769Z,41.77
2018-09-11T13:53:42.259Z,41.13
2018-09-11T13:56:11.883Z,40.40
2018-09-11T13:58:42.267Z,39.91
2018-09-11T14:01:12.095Z,41.08
2018-09-11T14:03:42.485Z,40.84
2018-09-11T14:06:12.064Z,41.33
2018-09-11T14:08:42.413Z,40.03
2018-09-11T14:11:13.569Z,39.98
2018-09-11T14:13:43.293Z,40.24
2018-09-11T14:16:13.095Z,39.65
2018-09-11T14:18:43.148Z,39.35
2018-09-11T14:21:12.943Z,40.53
2018-09-11T14:23:42.692Z,40.54
2018-09-11T14:26:12.189Z,40.67
2018-09-11T14:28:42.352Z,40.42
2018-09-11T14:31:12.095Z,39.83
2018-09-11T14:33:42.757Z,41.37
2018-09-11T14:36:12.248Z,40.79
2018-09-11T14:38:42.685Z,40.58
2018-09-11T14:41:12.211Z,40.67
2018-09-11T14:43:42.305Z,40.23
2018-09-11T14:46:12.097Z,40.80
2018-09-11T14:48:42.359Z,41.12
2018-09-11T14:51:13.338Z,40.76
2018-09-11T14:53:43.025Z,41.94
2018-09-11T14:56:12.554Z,41.16
2018-09-11T14:58:42.918Z,41.26
2018-09-11T15:01:12.584Z,41.60
2018-09-11T15:03:42.536Z,41.74
2018-09-11T15:06:12.358Z,40.93
2018-09-11T15:08:42.368Z,40.94
2018-09-11T15:11:12.037Z,41.12
2018-09-11T15:13:42.423Z,42.16
2018-09-11T15:16:12.283Z,42.19
2018-09-11T15:18:42.544Z,41.17
2018-09-11T15:21:12.264Z,41.37
2018-09-11T15:23:42.393Z,42.26
2018-09-11T15:26:12.100Z,41.72
2018-09-11T15:28:42.489Z,41.85
2018-09-11T15:31:12.147Z,40.85
2018-09-11T15:33:43.487Z,41.86
2018-09-11T15:36:13.177Z,40.94
2018-09-11T15:38:42.684Z,41.04
2018-09-11T15:41:12.256Z,41.60
2018-09-11T15:43:42.825Z,40.99
2018-09-11T15:46:12.375Z,41.60
2018-09-11T15:48:42.487Z,40.70
2018-09-11T15:51:12.216Z,41.00
2018-09-11T15:53:42.366Z,42.27
2018-09-11T15:56:12.129Z,42.12
2018-09-11T15:58:42.612Z,41.42
2018-09-11T16:01:12.252Z,41.31
2018-09-11T16:03:42.539Z,40.55
2018-09-11T16:06:12.393Z,40.36
2018-09-11T16:08:42.651Z,40.32
2018-09-11T16:11:12.186Z,39.75
2018-09-11T16:13:42.809Z,40.77
2018-09-11T16:16:12.432Z,40.37
2018-09-11T16:18:42.576Z,40.46
2018-09-11T16:21:12.183Z,39.30
2018-09-11T16:23:42.580Z,38.96
2018-09-11T16:26:12.200Z,38.55
2018-09-11T16:28:42.632Z,38.77
2018-09-11T16:31:12.306Z,39.30
2018-09-11T16:33:42.754Z,39.30
2018-09-11T16:36:12.302Z,38.17
2018-09-11T16:38:42.809Z,39.33
2018-09-11T16:41:12.388Z,38.24
2018-09-11T16:43:43.077Z,38.22
2018-09-11T16:46:12.976Z,39.11
2018-09-11T16:48:42.760Z,38.26
2018-09-11T16:51:12.369Z,38.64
2018-09-11T16:53:42.563Z,38.19
2018-09-11T16:56:12.635Z,39.38
2018-09-11T16:58:42.978Z,38.87
2018-09-11T17:01:20.313Z,38.78
2018-09-11T17:03:49.752Z,40.11
2018-09-11T17:06:19.360Z,39.86
2018-09-11T17:08:49.092Z,39.05
2018-09-11T17:11:18.712Z,39.59
2018-09-11T17:13:48.589Z,39.92
2018-09-11T17:16:18.088Z,40.75
2018-09-11T17:18:47.701Z,40.22
2018-09-11T17:21:17.273Z,40.73
2018-09-11T17:23:46.740Z,40.07
2018-09-11T17:26:16.618Z,41.21
2018-09-11T17:28:46.282Z,40.44
2018-09-11T17:31:15.824Z,41.25
2018-09-11T17:33:45.564Z,42.16
2018-09-11T17:36:15.024Z,42.07
2018-09-11T17:38:44.803Z,41.76
2018-09-11T17:41:14.611Z,41.34
2018-09-11T17:43:44.338Z,41.82
2018-09-11T17:46:13.755Z,42.85
2018-09-11T17:48:43.656Z,42.09
2018-09-11T17:51:13.670Z,42.93
2018-09-11T17:53:43.367Z,43.02
2018-09-11T17:56:12.928Z,42.78
2018-09-11T17:58:42.837Z,43.35
2018-09-11T18:01:12.598Z,42.91
2018-09-11T18:03:42.710Z,43.55
2018-09-11T18:06:12.368Z,44.46
2018-09-11T18:08:42.816Z,44.81
2018-09-11T18:11:12.606Z,45.28
2018-09-11T18:13:42.763Z,45.58
2018-09-11T18:16:12.238Z,45.20
2018-09-11T18:18:42.843Z,45.63
2018-09-11T18:21:12.437Z,45.36
2018-09-11T18:23:42.993Z,46.39
2018-09-11T18:26:12.670Z,46.47
2018-09-11T18:28:43.034Z,46.09
2018-09-11T18:31:12.666Z,45.69
2018-09-11T18:33:43.055Z,46.89
2018-09-11T18:36:12.998Z,46.92
2018-09-11T18:38:42.931Z,47.05
2018-09-11T18:41:12.865Z,47.15
2018-09-11T18:43:42.837Z,46.00
2018-09-11T18:46:12.810Z,45.73
2018-09-11T18:48:43.340Z,46.84
2018-09-11T18:51:13.134Z,45.91
2018-09-11T18:53:42.894Z,46.11
2018-09-11T18:56:12.516Z,46.96
2018-09-11T18:58:42.918Z,46.52
2018-09-11T19:01:12.705Z,46.63
2018-09-11T19:03:43.085Z,47.02
2018-09-11T19:06:12.663Z,47.14
2018-09-11T19:08:43.158Z,46.34
2018-09-11T19:11:12.905Z,46.77
2018-09-11T19:13:42.899Z,46.13
2018-09-11T19:16:12.392Z,46.20
2018-09-11T19:18:43.073Z,46.15
2018-09-11T19:21:12.663Z,46.12
2018-09-11T19:23:42.781Z,46.33
2018-09-11T19:26:12.244Z,46.93
2018-09-11T19:28:43.032Z,47.66
2018-09-11T19:31:12.761Z,47.52
2018-09-11T19:33:43.083Z,46.79
2018-09-11T19:36:13.063Z,46.88
2018-09-11T19:38:42.977Z,47.32
2018-09-11T19:41:12.576Z,47.24
2018-09-11T19:43:42.992Z,47.50
2018-09-11T19:46:12.776Z,46.89
2018-09-11T19:48:43.206Z,48.06
2018-09-11T19:51:13.175Z,47.91
2018-09-11T19:53:43.008Z,48.28
2018-09-11T19:56:12.572Z,47.59
2018-09-11T19:58:42.998Z,47.35
2018-09-11T20:01:12.857Z,47.86
2018-09-11T20:03:43.025Z,48.61
2018-09-11T20:06:12.645Z,48.59
2018-09-11T20:08:43.388Z,48.78
2018-09-11T20:11:12.901Z,48.33
2018-09-11T20:13:42.997Z,48.13
2018-09-11T20:16:12.826Z,48.45
2018-09-11T20:18:43.216Z,48.05
2018-09-11T20:21:12.875Z,48.25
2018-09-11T20:23:43.037Z,48.07
2018-09-11T20:26:12.787Z,48.26
2018-09-11T20:28:43.171Z,48.70
2018-09-11T20:31:13.100Z,48.53
2018-09-11T20:33:43.224Z,48.97
2018-09-11T20:36:12.800Z,49.03
2018-09-11T20:38:42.912Z,49.08
2018-09-11T20:41:12.630Z,48.66
2018-09-11T20:43:43.091Z,48.74
2018-09-11T20:46:12.854Z,48.39
2018-09-11T20:48:43.182Z,49.15
2018-09-11T20:51:12.754Z,48.68
2018-09-11T20:53:43.193Z,49.30
2018-09-11T20:56:12.837Z,49.44
2018-09-11T20:58:43.219Z,48.42
2018-09-11T21:01:12.814Z,49.26
2018-09-11T21:03:43.263Z,49.39
2018-09-11T21:06:12.912Z,49.55
2018-09-11T21:08:43.100Z,49.74
2018-09-11T21:11:12.814Z,49.03
2018-09-11T21:13:43.472Z,49.91
2018-09-11T21:16:13.042Z,49.69
2018-09-11T21:18:43.570Z,49.16
2018-09-11T21:21:13.040Z,50.19
2018-09-11T21:23:43.144Z,50.25
2018-09-11T21:26:12.803Z,49.34
2018-09-11T21:28:43.182Z,49.03
2018-09-11T21:31:13.006Z,49.16
2018-09-11T21:33:43.276Z,49.10
2018-09-11T21:36:12.938Z,50.10
2018-09-11T21:38:43.193Z,49.41
2018-09-11T21:41:12.646Z,49.04
2018-09-11T21:43:43.104Z,49.79
2018-09-11T21:46:12.610Z,49.68
2018-09-11T21:48:43.393Z,49.37
2018-09-11T21:51:12.938Z,48.87
2018-09-11T21:53:43.314Z,49.00
2018-09-11T21:56:12.879Z,49.32
2018-09-11T21:58:43.256Z,49.19
2018-09-11T22:02:18.221Z,49.97
2018-09-11T22:04:47.752Z,49.77
2018-09-11T22:07:17.660Z,50.62
2018-09-11T22:09:47.242Z,50.21
2018-09-11T22:12:17.007Z,49.52
2018-09-11T22:14:46.886Z,50.49
2018-09-11T22:17:16.324Z,50.37
2018-09-11T22:19:45.991Z,50.04
2018-09-11T22:22:15.747Z,49.84
2018-09-11T22:24:45.371Z,50.43
2018-09-11T22:27:15.051Z,50.59
2018-09-11T22:29:45.139Z,50.64
2018-09-11T22:32:14.615Z,50.29
2018-09-11T22:34:44.297Z,50.29
2018-09-11T22:37:14.079Z,51.48
2018-09-11T22:39:44.275Z,51.66
2018-09-11T22:42:14.458Z,51.88
2018-09-11T22:44:44.206Z,51.96
2018-09-11T22:47:13.950Z,51.75
2018-09-11T22:49:43.387Z,51.15
2018-09-11T22:52:12.903Z,50.96
2018-09-11T22:54:43.525Z,51.77
2018-09-11T22:57:13.163Z,51.19
2018-09-11T22:59:43.289Z,51.35
2018-09-11T23:02:13.048Z,51.65
2018-09-11T23:04:43.454Z,51.58
2018-09-11T23:07:13.154Z,51.22
2018-09-11T23:09:43.871Z,51.26
2018-09-11T23:12:13.278Z,52.08
2018-09-11T23:14:43.342Z,52.51
2018-09-11T23:17:13.049Z,52.80
2018-09-11T23:19:43.407Z,52.19
2018-09-11T23:22:13.078Z,52.18
2018-09-11T23:24:43.508Z,52.60
2018-09-11T23:27:13.141Z,53.08
2018-09-11T23:29:43.523Z,53.21
2018-09-11T23:32:13.064Z,52.53
2018-09-11T23:34:43.461Z,52.46
2018-09-11T23:37:12.886Z,52.46
2018-09-11T23:39:43.705Z,53.45
2018-09-11T23:42:13.258Z,52.80
2018-09-11T23:44:43.425Z,52.60
2018-09-11T23:47:13.101Z,52.72
2018-09-11T23:49:44.655Z,53.02
2018-09-11T23:52:14.227Z,53.84
2018-09-11T23:54:43.665Z,53.18
2018-09-11T23:57:13.241Z,53.71
2018-09-11T23:59:43.759Z,53.65
